Time;durP1;ratioP1;P1;durP2;ratioP2;P2;SDS_P1;SDS_P2;PMS_P1;PMS_P2;Temp;Humidity;BMP_temperature;BMP_pressure;BME280_temperature;BME280_humidity;BME280_pressure;Samples;Min_cycle;Max_cycle;Signal;HPM_P1;HPM_P2
2022/07/03 00:00:40;;;;;;;12.10;7.13;;;;;;;;;;5041191;28;20102;-70
2022/07/03 00:03:06;;;;;;;13.00;7.40;;;;;;;;;;5040088;28;20033;-71
2022/07/03 00:05:32;;;;;;;10.70;7.65;;;;;;;;;;5020126;28;20457;-71
2022/07/03 00:07:58;;;;;;;7.40;6.50;;;;;;;;;;5038003;28;20424;-70
2022/07/03 00:10:24;;;;;;;10.82;6.40;;;;;;;;;;5044160;28;20029;-70
2022/07/03 00:12:50;;;;;;;8.77;6.57;;;;;;;;;;5016108;28;20033;-70
2022/07/03 00:15:16;;;;;;;10.40;6.63;;;;;;;;;;5041456;28;20029;-70
2022/07/03 00:17:42;;;;;;;11.57;6.95;;;;;;;;;;5039396;28;20068;-70
2022/07/03 00:20:09;;;;;;;13.07;7.30;;;;;;;;;;5042837;28;20065;-71
2022/07/03 00:22:37;;;;;;;9.63;7.00;;;;;;;;;;5036710;28;20368;-71
2022/07/03 00:25:05;;;;;;;11.38;6.93;;;;;;;;;;5040742;28;20033;-71
2022/07/03 00:27:33;;;;;;;10.30;7.10;;;;;;;;;;5042599;28;20029;-72
2022/07/03 00:30:00;;;;;;;11.75;7.10;;;;;;;;;;5042279;28;20565;-71
2022/07/03 00:32:27;;;;;;;9.80;6.93;;;;;;;;;;5041427;28;20032;-69
2022/07/03 00:34:54;;;;;;;9.43;7.13;;;;;;;;;;5020147;28;20025;-71
2022/07/03 00:37:20;;;;;;;9.73;6.80;;;;;;;;;;5040903;28;20072;-70
2022/07/03 00:39:48;;;;;;;8.43;6.97;;;;;;;;;;5026003;28;20478;-71
2022/07/03 00:42:14;;;;;;;13.18;8.18;;;;;;;;;;5041747;28;20025;-71
2022/07/03 00:44:45;;;;;;;15.77;9.05;;;;;;;;;;5047489;28;20114;-70
2022/07/03 00:47:12;;;;;;;14.40;8.15;;;;;;;;;;5059534;28;20438;-70
2022/07/03 00:49:38;;;;;;;15.60;8.77;;;;;;;;;;5051360;28;20029;-69
2022/07/03 00:52:05;;;;;;;12.88;8.25;;;;;;;;;;5049860;28;20064;-68
2022/07/03 00:54:34;;;;;;;12.68;7.78;;;;;;;;;;5052532;28;20112;-71
2022/07/03 00:57:02;;;;;;;11.40;7.93;;;;;;;;;;5049245;28;20035;-71
2022/07/03 00:59:28;;;;;;;14.40;8.00;;;;;;;;;;5060237;28;20048;-71
2022/07/03 01:01:57;;;;;;;11.02;7.50;;;;;;;;;;5055874;28;20599;-71
2022/07/03 01:04:35;;;;;;;19.90;7.97;;;;;;;;;;5060813;28;20028;-71
2022/07/03 01:07:05;;;;;;;11.73;7.75;;;;;;;;;;5063495;28;20978;-70
2022/07/03 01:09:43;;;;;;;10.63;7.87;;;;;;;;;;5059945;28;20107;-71
2022/07/03 01:12:32;;;;;;;10.93;7.18;;;;;;;;;;5053859;28;20035;-69
2022/07/03 01:15:11;;;;;;;12.45;7.60;;;;;;;;;;5062311;28;20102;-70
2022/07/03 01:17:44;;;;;;;14.18;8.73;;;;;;;;;;5059569;28;20631;-69
2022/07/03 01:20:11;;;;;;;11.43;7.45;;;;;;;;;;5058211;28;20031;-70
2022/07/03 01:22:43;;;;;;;9.13;8.02;;;;;;;;;;5053336;28;20040;-70
2022/07/03 01:25:29;;;;;;;16.92;7.60;;;;;;;;;;5062005;28;20028;-70
2022/07/03 01:27:55;;;;;;;12.20;8.45;;;;;;;;;;5058178;28;20036;-71
2022/07/03 01:30:22;;;;;;;18.13;9.77;;;;;;;;;;5058391;28;20021;-71
2022/07/03 01:32:53;;;;;;;15.65;9.68;;;;;;;;;;5059587;28;20036;-71
2022/07/03 01:35:27;;;;;;;16.65;12.23;;;;;;;;;;5060956;28;20032;-72
2022/07/03 01:37:54;;;;;;;21.38;13.98;;;;;;;;;;5056715;28;20025;-71
2022/07/03 01:40:23;;;;;;;21.45;14.07;;;;;;;;;;5061571;28;20047;-71
2022/07/03 01:42:50;;;;;;;22.90;13.35;;;;;;;;;;5060810;28;20193;-71
2022/07/03 01:45:19;;;;;;;21.20;15.07;;;;;;;;;;5052716;28;20025;-71
2022/07/03 01:47:46;;;;;;;20.67;14.48;;;;;;;;;;5037302;28;20039;-71
2022/07/03 01:50:14;;;;;;;19.05;14.38;;;;;;;;;;5036456;28;20068;-71
2022/07/03 01:52:41;;;;;;;23.05;17.15;;;;;;;;;;5039526;28;20033;-71
2022/07/03 01:55:09;;;;;;;26.02;18.50;;;;;;;;;;5041096;28;20435;-71
2022/07/03 01:57:45;;;;;;;27.90;18.17;;;;;;;;;;5043913;28;20029;-71
2022/07/03 02:00:16;;;;;;;26.65;18.35;;;;;;;;;;5023663;28;20110;-71
2022/07/03 02:02:57;;;;;;;30.00;18.98;;;;;;;;;;5037453;28;20033;-71
2022/07/03 02:05:29;;;;;;;30.67;19.00;;;;;;;;;;5028464;28;20037;-71
2022/07/03 02:07:58;;;;;;;31.45;19.75;;;;;;;;;;5025598;28;20075;-70
2022/07/03 02:10:28;;;;;;;31.58;19.77;;;;;;;;;;5044641;28;20037;-71
2022/07/03 02:13:15;;;;;;;36.97;21.60;;;;;;;;;;5041468;28;20025;-71
2022/07/03 02:15:42;;;;;;;32.47;20.75;;;;;;;;;;5033513;28;20071;-71
2022/07/03 02:18:12;;;;;;;34.60;20.98;;;;;;;;;;5044443;28;20025;-71
2022/07/03 02:20:40;;;;;;;33.35;21.20;;;;;;;;;;5020765;28;20052;-70
2022/07/03 02:23:06;;;;;;;36.60;22.08;;;;;;;;;;5042498;28;20639;-71
2022/07/03 02:25:34;;;;;;;32.10;20.80;;;;;;;;;;5029918;28;20044;-71
2022/07/03 02:28:12;;;;;;;34.45;20.02;;;;;;;;;;5028749;28;20060;-71
2022/07/03 02:30:42;;;;;;;26.45;19.48;;;;;;;;;;5039359;28;20091;-69
2022/07/03 02:33:10;;;;;;;27.67;19.13;;;;;;;;;;5022398;28;20446;-70
2022/07/03 02:35:36;;;;;;;27.80;18.27;;;;;;;;;;5044762;28;20029;-71
2022/07/03 02:38:02;;;;;;;24.58;16.08;;;;;;;;;;5042702;28;20056;-71
2022/07/03 02:40:43;;;;;;;24.45;14.95;;;;;;;;;;5038942;28;20035;-70
2022/07/03 02:43:31;;;;;;;22.10;15.00;;;;;;;;;;5041054;28;20124;-72
2022/07/03 02:46:48;;;;;;;18.20;13.07;;;;;;;;;;5041488;28;20049;-71
2022/07/03 02:48:51;;;;;;;18.85;12.73;;;;;;;;;;5041541;28;20482;-70
2022/07/03 02:51:20;;;;;;;18.00;13.05;;;;;;;;;;5041290;28;20033;-70
2022/07/03 02:54:06;;;;;;;17.38;11.93;;;;;;;;;;5025490;28;20021;-71
2022/07/03 02:56:53;;;;;;;19.33;11.18;;;;;;;;;;5014590;28;20037;-70
2022/07/03 02:59:30;;;;;;;16.65;11.52;;;;;;;;;;5043895;28;21249;-71
2022/07/03 03:02:00;;;;;;;15.73;10.80;;;;;;;;;;5042066;28;21095;-70
2022/07/03 03:04:33;;;;;;;18.10;10.55;;;;;;;;;;5023346;28;20103;-70
2022/07/03 03:07:02;;;;;;;13.15;9.40;;;;;;;;;;5026100;28;20041;-71
2022/07/03 03:09:35;;;;;;;15.95;11.02;;;;;;;;;;5037241;28;20033;-70
2022/07/03 03:12:02;;;;;;;15.13;9.70;;;;;;;;;;5041319;28;20380;-70
2022/07/03 03:14:36;;;;;;;18.65;9.98;;;;;;;;;;5042746;28;20029;-71
2022/07/03 03:17:05;;;;;;;14.73;9.68;;;;;;;;;;5022114;28;20399;-70
2022/07/03 03:19:34;;;;;;;12.82;8.95;;;;;;;;;;5041563;28;20034;-70
2022/07/03 03:22:10;;;;;;;14.07;9.25;;;;;;;;;;5020816;28;20080;-69
2022/07/03 03:24:36;;;;;;;18.85;10.32;;;;;;;;;;5044638;28;20037;-68
2022/07/03 03:27:02;;;;;;;16.63;10.57;;;;;;;;;;5042224;28;20153;-71
2022/07/03 03:29:28;;;;;;;14.90;10.10;;;;;;;;;;5022597;28;20124;-70
2022/07/03 03:31:54;;;;;;;14.60;9.73;;;;;;;;;;5040197;28;20033;-70
2022/07/03 03:34:23;;;;;;;12.90;9.00;;;;;;;;;;5041632;28;20513;-71
2022/07/03 03:36:49;;;;;;;16.65;9.25;;;;;;;;;;5044019;28;20061;-70
2022/07/03 03:39:15;;;;;;;15.43;9.38;;;;;;;;;;5039900;28;20538;-71
2022/07/03 03:41:41;;;;;;;12.82;8.70;;;;;;;;;;5043928;28;20025;-72
2022/07/03 03:44:07;;;;;;;14.43;9.25;;;;;;;;;;5024869;28;20036;-71
2022/07/03 03:46:33;;;;;;;15.68;8.93;;;;;;;;;;5045676;28;20121;-71
2022/07/03 03:49:00;;;;;;;13.40;7.80;;;;;;;;;;5041111;28;20044;-71
2022/07/03 03:51:26;;;;;;;11.35;7.68;;;;;;;;;;5040105;28;20478;-70
2022/07/03 03:53:52;;;;;;;19.95;8.93;;;;;;;;;;5041805;28;20418;-71
2022/07/03 03:56:18;;;;;;;9.50;6.50;;;;;;;;;;5043649;28;20192;-71
2022/07/03 03:58:44;;;;;;;12.15;7.10;;;;;;;;;;5017305;28;20108;-70
2022/07/03 04:01:11;;;;;;;12.45;7.75;;;;;;;;;;5019120;28;20082;-70
2022/07/03 04:03:38;;;;;;;11.35;7.53;;;;;;;;;;5040768;28;20108;-69
2022/07/03 04:06:04;;;;;;;9.70;6.75;;;;;;;;;;5021098;28;20047;-70
2022/07/03 04:08:31;;;;;;;13.52;6.63;;;;;;;;;;5039763;28;20101;-70
2022/07/03 04:10:57;;;;;;;11.73;6.57;;;;;;;;;;5022072;28;20494;-70
2022/07/03 04:13:23;;;;;;;11.00;6.13;;;;;;;;;;5039856;28;20063;-70
2022/07/03 04:15:50;;;;;;;9.23;6.32;;;;;;;;;;5038545;28;20486;-70
2022/07/03 04:18:16;;;;;;;9.38;5.50;;;;;;;;;;5034241;28;20032;-70
2022/07/03 04:20:42;;;;;;;15.20;6.45;;;;;;;;;;5023228;28;20025;-70
2022/07/03 04:23:08;;;;;;;9.10;5.80;;;;;;;;;;5039645;28;20032;-70
2022/07/03 04:25:34;;;;;;;9.25;5.82;;;;;;;;;;5042786;28;20029;-71
2022/07/03 04:28:01;;;;;;;7.28;5.00;;;;;;;;;;5039694;28;20048;-69
2022/07/03 04:30:27;;;;;;;12.18;5.68;;;;;;;;;;5038392;28;20033;-70
2022/07/03 04:32:53;;;;;;;11.68;5.28;;;;;;;;;;5018736;28;20033;-71
2022/07/03 04:35:19;;;;;;;11.82;4.75;;;;;;;;;;5042280;28;20097;-70
2022/07/03 04:37:45;;;;;;;6.95;4.38;;;;;;;;;;5040794;28;20257;-71
2022/07/03 04:40:12;;;;;;;8.15;4.70;;;;;;;;;;5041486;28;20029;-70
2022/07/03 04:42:38;;;;;;;11.00;4.15;;;;;;;;;;5019134;28;20021;-71
2022/07/03 04:45:05;;;;;;;13.52;4.20;;;;;;;;;;5041453;28;20025;-70
2022/07/03 04:47:31;;;;;;;8.98;4.10;;;;;;;;;;5042159;28;20045;-68
2022/07/03 04:49:57;;;;;;;7.40;4.25;;;;;;;;;;5014225;28;20041;-70
2022/07/03 04:52:23;;;;;;;9.50;4.40;;;;;;;;;;5017657;28;20036;-70
2022/07/03 04:54:49;;;;;;;10.30;4.40;;;;;;;;;;5026330;28;20024;-70
2022/07/03 04:57:15;;;;;;;9.25;4.00;;;;;;;;;;5040988;28;20178;-70
2022/07/03 04:59:41;;;;;;;8.80;4.32;;;;;;;;;;5017870;28;20064;-70
2022/07/03 05:02:07;;;;;;;6.50;3.80;;;;;;;;;;5018610;28;20486;-70
2022/07/03 05:04:33;;;;;;;8.73;4.10;;;;;;;;;;5038427;28;20056;-68
2022/07/03 05:07:00;;;;;;;5.70;3.72;;;;;;;;;;5041930;28;20040;-69
2022/07/03 05:09:26;;;;;;;8.70;3.40;;;;;;;;;;5013812;28;20029;-70
2022/07/03 05:11:52;;;;;;;8.02;3.50;;;;;;;;;;5007993;28;20120;-70
2022/07/03 05:14:18;;;;;;;9.00;3.30;;;;;;;;;;5038978;28;20033;-71
2022/07/03 05:16:44;;;;;;;5.13;2.65;;;;;;;;;;5022084;28;20050;-71
2022/07/03 05:19:10;;;;;;;7.60;3.17;;;;;;;;;;5016918;28;20658;-68
2022/07/03 05:21:36;;;;;;;10.18;3.22;;;;;;;;;;5038832;28;20056;-70
2022/07/03 05:24:02;;;;;;;7.95;2.42;;;;;;;;;;5035999;28;20104;-70
2022/07/03 05:26:28;;;;;;;10.18;2.92;;;;;;;;;;5043402;28;20270;-70
2022/07/03 05:28:54;;;;;;;8.32;2.53;;;;;;;;;;5036009;28;20543;-70
2022/07/03 05:31:20;;;;;;;8.10;2.00;;;;;;;;;;5042102;28;20076;-70
2022/07/03 05:33:47;;;;;;;7.75;2.60;;;;;;;;;;5017274;28;20379;-70
2022/07/03 05:36:13;;;;;;;8.00;2.20;;;;;;;;;;5040486;28;20498;-70
2022/07/03 05:41:23;;;;;;;7.03;2.17;;;;;;;;;;5041886;28;20449;-70
2022/07/03 05:43:50;;;;;;;12.82;2.30;;;;;;;;;;5019118;28;20380;-70
2022/07/03 05:46:16;;;;;;;5.63;1.60;;;;;;;;;;5041927;28;20092;-71
2022/07/03 05:48:42;;;;;;;8.88;2.00;;;;;;;;;;5046735;28;20106;-73
2022/07/03 05:51:08;;;;;;;8.32;2.10;;;;;;;;;;5043388;28;20082;-71
2022/07/03 05:53:34;;;;;;;4.78;1.50;;;;;;;;;;5038798;28;20053;-71
2022/07/03 05:56:00;;;;;;;6.78;1.58;;;;;;;;;;5041024;28;20057;-72
2022/07/03 05:58:26;;;;;;;6.80;1.70;;;;;;;;;;5046739;28;20128;-71
2022/07/03 06:00:52;;;;;;;4.78;1.70;;;;;;;;;;5009249;28;20111;-71
2022/07/03 06:03:18;;;;;;;11.25;1.75;;;;;;;;;;5042185;28;20035;-69
2022/07/03 06:05:44;;;;;;;11.43;2.22;;;;;;;;;;5048957;28;20120;-69
2022/07/03 06:08:10;;;;;;;6.10;1.60;;;;;;;;;;5027910;28;20059;-70
2022/07/03 06:10:36;;;;;;;7.68;1.80;;;;;;;;;;5041022;28;20493;-71
2022/07/03 06:13:02;;;;;;;15.00;2.25;;;;;;;;;;5043131;28;20028;-70
2022/07/03 06:15:28;;;;;;;10.80;2.30;;;;;;;;;;5046015;28;20040;-70
2022/07/03 06:17:54;;;;;;;8.52;1.70;;;;;;;;;;5026960;28;20321;-70
2022/07/03 06:20:20;;;;;;;10.73;2.35;;;;;;;;;;5042956;28;20518;-69
2022/07/03 06:22:46;;;;;;;8.85;1.90;;;;;;;;;;5043280;28;20037;-71
2022/07/03 06:25:12;;;;;;;8.15;1.85;;;;;;;;;;5011491;28;20502;-69
2022/07/03 06:27:38;;;;;;;12.85;2.13;;;;;;;;;;5042868;28;20052;-69
2022/07/03 06:30:04;;;;;;;8.65;1.85;;;;;;;;;;5024515;28;20091;-69
2022/07/03 06:32:30;;;;;;;9.82;1.92;;;;;;;;;;5008424;28;20455;-69
2022/07/03 06:34:56;;;;;;;6.60;1.85;;;;;;;;;;5045521;28;20049;-69
2022/07/03 06:37:23;;;;;;;9.20;2.00;;;;;;;;;;5038388;28;20041;-69
2022/07/03 06:39:49;;;;;;;7.35;1.65;;;;;;;;;;5039662;28;20029;-69
2022/07/03 06:42:15;;;;;;;7.25;1.80;;;;;;;;;;5040958;28;20060;-69
2022/07/03 06:44:41;;;;;;;5.43;1.60;;;;;;;;;;5023628;28;20025;-70
2022/07/03 06:47:07;;;;;;;8.15;1.73;;;;;;;;;;5043509;28;20075;-70
2022/07/03 06:49:34;;;;;;;6.00;1.98;;;;;;;;;;5041172;28;20551;-69
2022/07/03 06:52:00;;;;;;;11.15;2.15;;;;;;;;;;5042991;28;20040;-70
2022/07/03 06:54:26;;;;;;;7.93;2.00;;;;;;;;;;5027514;28;20100;-71
2022/07/03 06:56:52;;;;;;;8.00;2.17;;;;;;;;;;5044853;28;20076;-71
2022/07/03 06:59:18;;;;;;;7.65;1.40;;;;;;;;;;5044219;28;20025;-70
2022/07/03 07:01:44;;;;;;;6.70;1.83;;;;;;;;;;5043919;28;20039;-71
2022/07/03 07:04:10;;;;;;;8.63;1.83;;;;;;;;;;5038671;28;20459;-71
2022/07/03 07:06:37;;;;;;;10.50;1.67;;;;;;;;;;5023555;28;20017;-70
2022/07/03 07:09:04;;;;;;;6.35;1.40;;;;;;;;;;5039715;28;20029;-70
2022/07/03 07:11:30;;;;;;;8.32;1.70;;;;;;;;;;5045195;28;20047;-70
2022/07/03 07:13:56;;;;;;;4.85;1.33;;;;;;;;;;5038458;28;20151;-71
2022/07/03 07:16:22;;;;;;;7.28;1.52;;;;;;;;;;5042774;28;20025;-71
2022/07/03 07:18:48;;;;;;;7.13;1.23;;;;;;;;;;5039514;28;20032;-71
2022/07/03 07:21:14;;;;;;;5.00;1.40;;;;;;;;;;5023498;28;20454;-73
2022/07/03 07:23:40;;;;;;;6.47;1.60;;;;;;;;;;5018582;28;20434;-72
2022/07/03 07:26:07;;;;;;;5.63;1.80;;;;;;;;;;5024822;28;20037;-72
2022/07/03 07:28:34;;;;;;;10.45;1.55;;;;;;;;;;5041004;28;20025;-73
2022/07/03 07:31:01;;;;;;;5.10;1.40;;;;;;;;;;5042642;28;20056;-72
2022/07/03 07:33:27;;;;;;;5.68;1.45;;;;;;;;;;5020294;28;20040;-73
2022/07/03 07:35:53;;;;;;;5.68;1.58;;;;;;;;;;5047015;28;20065;-72
2022/07/03 07:38:19;;;;;;;5.65;1.67;;;;;;;;;;5044618;28;20418;-72
2022/07/03 07:40:45;;;;;;;6.85;1.80;;;;;;;;;;5031572;28;20025;-72
2022/07/03 07:43:11;;;;;;;5.63;1.27;;;;;;;;;;5047939;28;20036;-72
2022/07/03 07:45:37;;;;;;;5.35;1.83;;;;;;;;;;5028477;28;20032;-72
2022/07/03 07:48:03;;;;;;;6.43;1.63;;;;;;;;;;5026783;28;20501;-72
2022/07/03 07:50:29;;;;;;;7.32;1.95;;;;;;;;;;5034726;28;20029;-72
2022/07/03 07:52:55;;;;;;;9.45;1.67;;;;;;;;;;5025895;28;20140;-72
2022/07/03 07:55:22;;;;;;;9.07;1.70;;;;;;;;;;5049203;28;20071;-72
2022/07/03 07:57:48;;;;;;;7.70;1.77;;;;;;;;;;5028993;28;20021;-72
2022/07/03 08:00:16;;;;;;;4.05;1.60;;;;;;;;;;5031350;28;20057;-71
2022/07/03 08:05:37;;;;;;;5.90;1.50;;;;;;;;;;5050163;28;20067;-73
2022/07/03 08:08:03;;;;;;;5.40;1.20;;;;;;;;;;5030719;28;20044;-72
2022/07/03 08:10:29;;;;;;;6.22;1.67;;;;;;;;;;5044938;28;20036;-72
2022/07/03 08:12:55;;;;;;;5.63;1.45;;;;;;;;;;5044317;28;20186;-72
2022/07/03 08:15:21;;;;;;;6.40;1.70;;;;;;;;;;5025172;28;20053;-71
2022/07/03 08:17:47;;;;;;;8.48;1.25;;;;;;;;;;5043586;28;20611;-74
2022/07/03 08:20:13;;;;;;;7.32;1.63;;;;;;;;;;5041810;28;20024;-72
2022/07/03 08:22:39;;;;;;;6.28;1.60;;;;;;;;;;5025208;28;20025;-72
2022/07/03 08:25:05;;;;;;;6.85;1.67;;;;;;;;;;5042716;28;20048;-72
2022/07/03 08:27:31;;;;;;;6.22;1.80;;;;;;;;;;5019878;28;20143;-73
2022/07/03 08:29:57;;;;;;;6.10;1.98;;;;;;;;;;5038494;28;20090;-72
2022/07/03 08:32:23;;;;;;;5.50;1.67;;;;;;;;;;5045751;28;20036;-72
2022/07/03 08:34:49;;;;;;;7.15;1.95;;;;;;;;;;5045723;28;20025;-72
2022/07/03 08:37:15;;;;;;;6.20;1.50;;;;;;;;;;5012175;28;20764;-72
2022/07/03 08:39:41;;;;;;;5.85;1.70;;;;;;;;;;5046024;28;20049;-71
2022/07/03 08:42:08;;;;;;;3.85;1.48;;;;;;;;;;5008775;28;20183;-72
2022/07/03 08:44:36;;;;;;;6.47;1.33;;;;;;;;;;5027198;28;20021;-71
2022/07/03 08:47:03;;;;;;;6.32;1.70;;;;;;;;;;5047024;28;20056;-72
2022/07/03 08:49:30;;;;;;;6.45;1.42;;;;;;;;;;5064966;28;20476;-69
2022/07/03 08:51:56;;;;;;;7.55;1.80;;;;;;;;;;5065023;28;20052;-70
2022/07/03 08:54:22;;;;;;;7.50;1.60;;;;;;;;;;5066877;28;20113;-72
2022/07/03 08:56:49;;;;;;;5.63;1.50;;;;;;;;;;5067336;28;20041;-71
2022/07/03 08:59:16;;;;;;;5.40;1.35;;;;;;;;;;5064191;28;20493;-71
2022/07/03 09:01:43;;;;;;;4.30;1.50;;;;;;;;;;5067342;28;20028;-76
2022/07/03 09:04:12;;;;;;;4.32;1.38;;;;;;;;;;5065223;28;20027;-72
2022/07/03 09:06:38;;;;;;;8.00;1.38;;;;;;;;;;5068288;28;20021;-70
2022/07/03 09:09:05;;;;;;;6.75;1.77;;;;;;;;;;5063851;28;20040;-71
2022/07/03 09:11:31;;;;;;;7.47;1.88;;;;;;;;;;5060975;28;20470;-71
2022/07/03 09:13:57;;;;;;;6.15;1.90;;;;;;;;;;5069637;28;20032;-72
2022/07/03 09:16:23;;;;;;;7.07;2.45;;;;;;;;;;5063046;28;20753;-72
2022/07/03 09:18:49;;;;;;;5.45;1.80;;;;;;;;;;5070229;28;20111;-70
2022/07/03 09:21:16;;;;;;;10.50;2.35;;;;;;;;;;5067142;28;20047;-69
2022/07/03 09:23:43;;;;;;;7.75;2.10;;;;;;;;;;5068806;28;20021;-72
2022/07/03 09:26:13;;;;;;;4.80;1.95;;;;;;;;;;5069390;28;20128;-71
2022/07/03 09:28:51;;;;;;;8.02;2.33;;;;;;;;;;5068718;28;20040;-71
2022/07/03 09:31:19;;;;;;;17.35;3.13;;;;;;;;;;5068754;28;20032;-70
2022/07/03 09:33:51;;;;;;;6.95;2.65;;;;;;;;;;5066863;28;20020;-71
2022/07/03 09:36:17;;;;;;;9.75;2.10;;;;;;;;;;5067260;28;20063;-72
2022/07/03 09:38:46;;;;;;;4.47;1.88;;;;;;;;;;5067249;28;20021;-72
2022/07/03 09:41:12;;;;;;;6.38;1.80;;;;;;;;;;5055015;28;20461;-72
2022/07/03 09:43:42;;;;;;;8.85;2.17;;;;;;;;;;5064602;28;20036;-71
2022/07/03 09:46:08;;;;;;;9.30;3.10;;;;;;;;;;5053328;28;20052;-72
2022/07/03 09:48:38;;;;;;;7.57;1.95;;;;;;;;;;5045147;28;20029;-71
2022/07/03 09:51:19;;;;;;;4.97;1.40;;;;;;;;;;5041535;28;20086;-72
2022/07/03 09:53:46;;;;;;;5.82;1.80;;;;;;;;;;5043917;28;20033;-74
2022/07/03 09:56:13;;;;;;;9.13;2.50;;;;;;;;;;5042169;28;20036;-71
2022/07/03 09:58:39;;;;;;;7.30;2.28;;;;;;;;;;5043114;28;20106;-72
2022/07/03 10:01:22;;;;;;;5.70;1.65;;;;;;;;;;5020420;28;20497;-71
2022/07/03 10:03:48;;;;;;;6.38;1.70;;;;;;;;;;5043208;28;20056;-72
2022/07/03 10:06:14;;;;;;;5.18;1.80;;;;;;;;;;5044656;28;20025;-71
2022/07/03 10:08:42;;;;;;;7.13;2.00;;;;;;;;;;5025981;28;20029;-71
2022/07/03 10:11:09;;;;;;;7.38;1.92;;;;;;;;;;5041587;28;20025;-72
2022/07/03 10:13:39;;;;;;;7.78;2.40;;;;;;;;;;5044567;28;20025;-71
2022/07/03 10:16:05;;;;;;;8.13;2.42;;;;;;;;;;5041762;28;20036;-72
2022/07/03 10:18:32;;;;;;;6.20;2.63;;;;;;;;;;5042977;28;20179;-71
2022/07/03 10:20:59;;;;;;;8.32;2.72;;;;;;;;;;5045177;28;20040;-70
2022/07/03 10:23:27;;;;;;;7.03;2.47;;;;;;;;;;5010537;28;20026;-71
2022/07/03 10:25:54;;;;;;;7.68;2.40;;;;;;;;;;5048086;28;20025;-70
2022/07/03 10:28:20;;;;;;;7.70;2.13;;;;;;;;;;5046512;28;20033;-71
2022/07/03 10:30:48;;;;;;;6.88;2.53;;;;;;;;;;5049440;28;20033;-72
2022/07/03 10:33:14;;;;;;;6.03;2.30;;;;;;;;;;5030868;28;20037;-71
2022/07/03 10:35:42;;;;;;;7.93;2.83;;;;;;;;;;5050191;28;20041;-76
2022/07/03 10:38:13;;;;;;;5.85;2.75;;;;;;;;;;5049913;28;20091;-71
2022/07/03 10:46:26;;;;;;;22.83;5.95;;;;;;;;;;5047812;28;20048;-72
2022/07/03 10:48:52;;;;;;;15.65;6.70;;;;;;;;;;5022287;28;20028;-71
2022/07/03 10:51:18;;;;;;;19.20;7.43;;;;;;;;;;5048104;28;20032;-70
2022/07/03 10:53:44;;;;;;;15.70;7.70;;;;;;;;;;5025605;28;20070;-72
2022/07/03 10:56:10;;;;;;;12.98;8.63;;;;;;;;;;5046732;28;20063;-70
2022/07/03 10:58:55;;;;;;;18.45;10.55;;;;;;;;;;5041696;28;20071;-72
2022/07/03 11:01:27;;;;;;;13.40;8.98;;;;;;;;;;5046059;28;20350;-70
2022/07/03 11:03:55;;;;;;;39.20;10.77;;;;;;;;;;5029388;28;20036;-70
2022/07/03 11:06:21;;;;;;;12.13;8.10;;;;;;;;;;5042064;28;20028;-70
2022/07/03 11:09:13;;;;;;;15.07;8.88;;;;;;;;;;5039824;28;20040;-72
2022/07/03 11:11:54;;;;;;;7.68;4.47;;;;;;;;;;5039898;28;20045;-71
2022/07/03 11:14:22;;;;;;;7.30;2.80;;;;;;;;;;5023939;28;20107;-71
2022/07/03 11:16:48;;;;;;;7.45;2.67;;;;;;;;;;5041176;28;20029;-71
2022/07/03 11:19:14;;;;;;;6.57;2.67;;;;;;;;;;5039201;28;20037;-71
2022/07/03 11:21:49;;;;;;;6.28;2.40;;;;;;;;;;5037578;28;20104;-73
2022/07/03 11:24:20;;;;;;;6.03;1.95;;;;;;;;;;5039292;28;20026;-70
2022/07/03 11:26:46;;;;;;;4.75;1.80;;;;;;;;;;5045789;28;20021;-68
2022/07/03 11:29:28;;;;;;;4.45;1.60;;;;;;;;;;5041187;28;20079;-69
2022/07/03 11:31:54;;;;;;;3.75;1.80;;;;;;;;;;5043978;28;20029;-70
2022/07/03 11:34:21;;;;;;;4.10;1.30;;;;;;;;;;5045068;28;20025;-68
2022/07/03 11:36:47;;;;;;;5.30;1.80;;;;;;;;;;5044697;28;20067;-68
2022/07/03 11:39:13;;;;;;;7.82;2.08;;;;;;;;;;5046472;28;20459;-68
2022/07/03 11:41:39;;;;;;;8.25;1.92;;;;;;;;;;5038476;28;20029;-68
2022/07/03 11:44:10;;;;;;;6.20;2.25;;;;;;;;;;5027208;28;20421;-68
2022/07/03 11:46:37;;;;;;;6.50;2.25;;;;;;;;;;5040335;28;20053;-68
2022/07/03 11:49:12;;;;;;;6.30;2.45;;;;;;;;;;5039230;28;20110;-68
2022/07/03 11:51:39;;;;;;;8.02;2.67;;;;;;;;;;5021439;28;20021;-67
2022/07/03 11:54:06;;;;;;;7.38;2.65;;;;;;;;;;5041038;28;20639;-65
2022/07/03 11:56:32;;;;;;;3.47;2.10;;;;;;;;;;5038621;28;20022;-66
2022/07/03 11:59:00;;;;;;;6.10;2.50;;;;;;;;;;5018689;28;20091;-67
2022/07/03 12:01:25;;;;;;;3.75;2.28;;;;;;;;;;5036787;28;20068;-67
2022/07/03 12:03:52;;;;;;;6.13;2.95;;;;;;;;;;5041192;28;20056;-67
2022/07/03 12:06:19;;;;;;;7.78;2.90;;;;;;;;;;5023367;28;20033;-68
2022/07/03 12:08:48;;;;;;;7.25;2.65;;;;;;;;;;5040205;28;20021;-69
2022/07/03 12:11:15;;;;;;;7.75;3.25;;;;;;;;;;5037601;28;20028;-67
2022/07/03 12:13:41;;;;;;;5.38;3.60;;;;;;;;;;5043055;28;20021;-69
2022/07/03 12:16:12;;;;;;;8.90;3.63;;;;;;;;;;5023816;28;20375;-69
2022/07/03 12:18:45;;;;;;;5.53;3.65;;;;;;;;;;5041107;28;20380;-70
2022/07/03 12:21:11;;;;;;;5.72;3.55;;;;;;;;;;5037461;28;20039;-70
2022/07/03 12:23:51;;;;;;;8.70;4.18;;;;;;;;;;5035753;28;20033;-68
2022/07/03 12:26:28;;;;;;;7.28;3.85;;;;;;;;;;5037681;28;20544;-68
2022/07/03 12:28:55;;;;;;;11.93;4.28;;;;;;;;;;5022115;28;20029;-68
2022/07/03 12:31:21;;;;;;;8.55;3.78;;;;;;;;;;5019976;28;20087;-69
2022/07/03 12:33:47;;;;;;;18.70;3.95;;;;;;;;;;5035359;28;20060;-68
2022/07/03 12:36:13;;;;;;;7.32;2.70;;;;;;;;;;5036567;28;20044;-68
2022/07/03 12:38:40;;;;;;;3.97;2.10;;;;;;;;;;5039252;28;20121;-68
2022/07/03 12:41:07;;;;;;;3.83;2.20;;;;;;;;;;5023383;28;20474;-69
2022/07/03 12:43:38;;;;;;;7.50;2.70;;;;;;;;;;5040375;28;20029;-69
2022/07/03 12:46:04;;;;;;;;;;;;;;;;;;5042625;28;20052;-69
2022/07/03 12:48:30;;;;;;;4.00;2.00;;;;;;;;;;5049441;28;19905;-69
2022/07/03 12:50:56;;;;;;;5.05;1.95;;;;;;;;;;5043222;28;20677;-69
2022/07/03 12:53:32;;;;;;;3.97;1.80;;;;;;;;;;5042254;28;20056;-67
2022/07/03 12:56:02;;;;;;;4.63;1.65;;;;;;;;;;5034203;28;20029;-67
2022/07/03 13:01:30;;;;;;;6.75;1.60;;;;;;;;;;5032017;28;20458;-68
2022/07/03 13:03:56;;;;;;;4.47;1.88;;;;;;;;;;5039217;28;20108;-68
2022/07/03 13:06:23;;;;;;;3.92;1.63;;;;;;;;;;5036072;28;20021;-67
2022/07/03 13:08:55;;;;;;;4.78;1.70;;;;;;;;;;5035550;28;20052;-67
2022/07/03 13:11:37;;;;;;;4.95;1.80;;;;;;;;;;5036625;28;20075;-68
2022/07/03 13:14:05;;;;;;;2.75;1.48;;;;;;;;;;5036927;28;20041;-68
2022/07/03 13:16:36;;;;;;;5.75;1.65;;;;;;;;;;5019878;28;20029;-67
2022/07/03 13:19:02;;;;;;;2.92;1.38;;;;;;;;;;5037415;28;20033;-67
2022/07/03 13:21:29;;;;;;;3.40;1.20;;;;;;;;;;5035500;28;20159;-67
2022/07/03 13:23:56;;;;;;;4.38;1.25;;;;;;;;;;5015906;28;20121;-67
2022/07/03 13:26:22;;;;;;;9.13;1.63;;;;;;;;;;5035375;28;20021;-67
2022/07/03 13:28:48;;;;;;;9.05;1.55;;;;;;;;;;5037768;28;20037;-67
2022/07/03 13:31:15;;;;;;;4.15;1.33;;;;;;;;;;5033996;28;20497;-67
2022/07/03 13:33:41;;;;;;;3.08;1.38;;;;;;;;;;5036528;28;20031;-68
2022/07/03 13:36:07;;;;;;;3.70;1.33;;;;;;;;;;5032827;28;20049;-70
2022/07/03 13:38:33;;;;;;;3.22;1.52;;;;;;;;;;5035384;28;20037;-68
2022/07/03 13:40:59;;;;;;;5.20;1.80;;;;;;;;;;5016172;28;20144;-67
2022/07/03 13:43:25;;;;;;;9.18;1.95;;;;;;;;;;5031493;28;20057;-67
2022/07/03 13:45:51;;;;;;;4.43;1.55;;;;;;;;;;5038516;28;20115;-67
2022/07/03 13:48:17;;;;;;;7.18;1.77;;;;;;;;;;5017109;28;20053;-69
2022/07/03 13:50:43;;;;;;;6.55;2.20;;;;;;;;;;5037757;28;20065;-67
2022/07/03 13:53:09;;;;;;;6.05;1.60;;;;;;;;;;5041159;28;20029;-68
2022/07/03 13:55:35;;;;;;;5.60;1.40;;;;;;;;;;5039788;28;20179;-67
2022/07/03 13:58:06;;;;;;;7.28;1.75;;;;;;;;;;5041054;28;20493;-67
2022/07/03 14:00:32;;;;;;;6.05;1.92;;;;;;;;;;5020576;28;20026;-68
2022/07/03 14:02:58;;;;;;;5.35;1.95;;;;;;;;;;5041457;28;20033;-68
2022/07/03 14:05:24;;;;;;;5.68;1.58;;;;;;;;;;5042318;28;20083;-67
2022/07/03 14:07:50;;;;;;;4.70;1.80;;;;;;;;;;5023064;28;20123;-67
2022/07/03 14:10:16;;;;;;;7.00;2.10;;;;;;;;;;5040751;28;20029;-67
2022/07/03 14:12:42;;;;;;;9.23;1.95;;;;;;;;;;5038933;28;20025;-67
2022/07/03 14:15:09;;;;;;;6.55;1.70;;;;;;;;;;5042472;28;20032;-67
2022/07/03 14:17:35;;;;;;;5.53;1.73;;;;;;;;;;5038260;28;20026;-67
2022/07/03 14:20:01;;;;;;;3.25;1.75;;;;;;;;;;5020957;28;20120;-68
2022/07/03 14:22:27;;;;;;;5.65;2.00;;;;;;;;;;5025009;28;20470;-68
2022/07/03 14:24:53;;;;;;;4.50;1.80;;;;;;;;;;5022043;28;20041;-68
2022/07/03 14:32:49;;;;;;;4.90;1.92;;;;;;;;;;5042441;28;20512;-68
2022/07/03 14:35:16;;;;;;;6.38;2.03;;;;;;;;;;5023942;28;20136;-68
2022/07/03 14:37:42;;;;;;;4.97;2.08;;;;;;;;;;5039358;28;20037;-68
2022/07/03 14:40:08;;;;;;;6.43;2.05;;;;;;;;;;5041061;28;20090;-68
2022/07/03 14:42:34;;;;;;;7.40;1.92;;;;;;;;;;5046051;28;20063;-68
2022/07/03 14:45:00;;;;;;;4.55;1.90;;;;;;;;;;5035974;28;20033;-68
2022/07/03 14:47:26;;;;;;;5.85;2.05;;;;;;;;;;5039491;28;20049;-68
2022/07/03 14:49:52;;;;;;;6.88;2.53;;;;;;;;;;5037955;28;20564;-68
2022/07/03 14:52:18;;;;;;;5.63;1.95;;;;;;;;;;5041863;28;20029;-68
2022/07/03 14:54:44;;;;;;;6.75;2.20;;;;;;;;;;5042590;28;20511;-68
2022/07/03 14:57:18;;;;;;;5.13;2.03;;;;;;;;;;5041186;28;20463;-69
2022/07/03 15:00:03;;;;;;;5.95;1.98;;;;;;;;;;5039472;28;20025;-69
2022/07/03 15:02:33;;;;;;;4.05;1.80;;;;;;;;;;5040135;28;20552;-67